createdAt,value
2019-02-22T00:00:58.072Z,53.10
2019-02-22T00:03:26.675Z,53.10
2019-02-22T00:05:55.160Z,53.30
2019-02-22T00:08:23.667Z,53.20
2019-02-22T00:10:53.693Z,53.30
2019-02-22T00:13:22.210Z,53.30
2019-02-22T00:15:50.768Z,53.30
2019-02-22T00:18:19.234Z,53.30
2019-02-22T00:20:47.736Z,53.20
2019-02-22T00:23:16.262Z,53.40
2019-02-22T00:25:44.841Z,53.30
2019-02-22T00:28:13.279Z,53.30
2019-02-22T00:30:41.780Z,53.50
2019-02-22T00:33:10.289Z,53.50
2019-02-22T00:35:38.778Z,53.40
2019-02-22T00:38:07.246Z,53.50
2019-02-22T00:43:22.378Z,53.20
2019-02-22T00:45:50.944Z,53.20
2019-02-22T00:48:19.436Z,53.20
2019-02-22T00:50:47.887Z,53.20
2019-02-22T00:53:16.407Z,53.30
2019-02-22T00:55:44.916Z,53.30
2019-02-22T00:58:13.504Z,53.20
2019-02-22T01:00:41.943Z,53.10
2019-02-22T01:03:10.557Z,53.30
2019-02-22T01:05:39.083Z,53.40
2019-02-22T01:08:07.567Z,53.30
2019-02-22T01:10:36.003Z,53.40
2019-02-22T01:13:04.499Z,53.40
2019-02-22T01:15:33.008Z,53.40
2019-02-22T01:18:01.541Z,53.50
2019-02-22T01:20:31.148Z,53.50
2019-02-22T01:22:59.648Z,53.40
2019-02-22T01:25:28.123Z,53.40
2019-02-22T01:27:56.802Z,53.40
2019-02-22T01:30:25.233Z,53.40
2019-02-22T01:32:53.704Z,53.40
2019-02-22T01:35:22.162Z,53.30
2019-02-22T01:37:50.628Z,53.30
2019-02-22T01:40:19.140Z,53.30
2019-02-22T01:42:47.610Z,53.30
2019-02-22T01:45:16.043Z,53.30
2019-02-22T01:47:44.476Z,53.40
2019-02-22T01:50:21.499Z,53.30
2019-02-22T01:52:50.047Z,53.40
2019-02-22T01:55:18.495Z,53.50
2019-02-22T01:57:46.976Z,53.40
2019-02-22T02:00:15.838Z,53.40
2019-02-22T02:02:44.360Z,53.50
2019-02-22T02:05:12.975Z,53.40
2019-02-22T02:07:41.431Z,53.40
2019-02-22T02:10:09.964Z,53.40
2019-02-22T02:12:38.412Z,53.30
2019-02-22T02:15:07.726Z,53.30
2019-02-22T02:17:36.273Z,53.20
2019-02-22T02:20:06.728Z,53.20
2019-02-22T02:22:35.240Z,53.20
2019-02-22T02:25:04.408Z,53.20
2019-02-22T02:27:32.850Z,53.10
2019-02-22T02:30:01.542Z,53.10
2019-02-22T02:32:30.103Z,53.10
2019-02-22T02:34:58.653Z,53.00
2019-02-22T02:37:27.103Z,53.10
2019-02-22T02:39:55.553Z,53.20
2019-02-22T02:42:23.991Z,53.40
2019-02-22T02:44:52.492Z,53.40
2019-02-22T02:47:20.964Z,53.30
2019-02-22T02:49:49.649Z,53.40
2019-02-22T02:52:18.092Z,53.40
2019-02-22T02:54:46.551Z,53.40
2019-02-22T02:57:14.991Z,53.40
2019-02-22T02:59:43.490Z,53.40
2019-02-22T03:02:13.665Z,53.40
2019-02-22T03:04:42.246Z,53.40
2019-02-22T03:07:12.474Z,53.50
2019-02-22T03:09:40.957Z,53.50
2019-02-22T03:12:09.474Z,53.50
2019-02-22T03:14:37.919Z,53.60
2019-02-22T03:17:06.392Z,53.70
2019-02-22T03:19:34.836Z,53.70
2019-02-22T03:22:03.362Z,53.70
2019-02-22T03:24:31.812Z,53.70
2019-02-22T03:27:00.361Z,53.70
2019-02-22T03:29:28.867Z,53.70
2019-02-22T03:31:57.340Z,53.60
2019-02-22T03:34:25.878Z,53.60
2019-02-22T03:36:57.631Z,53.40
2019-02-22T03:39:26.098Z,53.60
2019-02-22T03:41:54.738Z,53.70
2019-02-22T03:44:23.179Z,53.80
2019-02-22T03:46:51.672Z,53.90
2019-02-22T03:49:20.152Z,53.90
2019-02-22T03:51:48.635Z,54.00
2019-02-22T03:54:17.067Z,54.00
2019-02-22T03:56:45.536Z,54.00
2019-02-22T03:59:14.053Z,54.00
2019-02-22T04:01:42.676Z,54.10
2019-02-22T04:04:11.482Z,54.00
2019-02-22T04:06:40.030Z,54.10
2019-02-22T04:09:10.743Z,54.00
2019-02-22T04:11:45.552Z,54.10
2019-02-22T04:14:09.508Z,54.00
2019-02-22T04:16:38.111Z,53.40
2019-02-22T04:19:06.564Z,53.90
2019-02-22T04:21:35.076Z,53.70
2019-02-22T04:24:03.531Z,53.70
2019-02-22T04:26:31.999Z,53.80
2019-02-22T04:29:00.455Z,53.80
2019-02-22T04:31:28.928Z,53.90
2019-02-22T04:33:57.678Z,53.90
2019-02-22T04:36:26.113Z,54.00
2019-02-22T04:38:54.588Z,54.00
2019-02-22T04:41:23.047Z,53.90
2019-02-22T04:43:51.603Z,54.10
2019-02-22T04:46:20.045Z,54.20
2019-02-22T04:48:48.562Z,54.40
2019-02-22T04:51:17.164Z,54.60
2019-02-22T04:53:46.012Z,54.80
2019-02-22T04:56:14.464Z,54.70
2019-02-22T04:58:42.943Z,54.80
2019-02-22T05:01:11.410Z,54.80
2019-02-22T05:03:39.892Z,55.00
2019-02-22T05:06:08.344Z,55.20
2019-02-22T05:08:37.128Z,55.80
2019-02-22T05:11:05.568Z,55.10
2019-02-22T05:13:34.043Z,55.10
2019-02-22T05:16:02.505Z,55.00
2019-02-22T05:18:31.088Z,55.00
2019-02-22T05:20:59.539Z,54.80
2019-02-22T05:23:28.004Z,54.90
2019-02-22T05:25:56.459Z,54.80
2019-02-22T05:28:24.987Z,54.60
2019-02-22T05:30:53.538Z,54.60
2019-02-22T05:33:22.117Z,54.50
2019-02-22T05:35:50.624Z,54.70
2019-02-22T05:38:19.147Z,54.90
2019-02-22T05:40:47.665Z,54.90
2019-02-22T05:43:16.200Z,54.90
2019-02-22T05:45:44.729Z,55.00
2019-02-22T05:48:13.311Z,55.20
2019-02-22T05:50:41.815Z,55.30
2019-02-22T05:53:10.286Z,55.30
2019-02-22T05:55:38.800Z,55.20
2019-02-22T05:58:07.265Z,55.00
2019-02-22T06:00:35.708Z,55.20
2019-02-22T06:03:04.341Z,55.10
2019-02-22T06:05:32.834Z,55.20
2019-02-22T06:08:01.343Z,55.20
2019-02-22T06:10:29.790Z,55.20
2019-02-22T06:12:58.251Z,55.20
2019-02-22T06:15:26.707Z,55.20
2019-02-22T06:17:55.145Z,55.20
2019-02-22T06:20:23.594Z,55.40
2019-02-22T06:22:52.055Z,55.30
2019-02-22T06:25:20.539Z,55.30
2019-02-22T06:27:49.003Z,55.80
2019-02-22T06:30:17.529Z,55.40
2019-02-22T06:32:45.973Z,55.40
2019-02-22T06:35:14.520Z,55.40
2019-02-22T06:37:42.966Z,55.50
2019-02-22T06:40:11.629Z,55.40
2019-02-22T06:42:45.831Z,55.30
2019-02-22T06:45:10.335Z,55.40
2019-02-22T06:47:38.814Z,55.50
2019-02-22T06:50:08.529Z,55.60
2019-02-22T06:52:37.032Z,55.60
2019-02-22T06:55:06.068Z,55.50
2019-02-22T06:57:34.542Z,55.50
2019-02-22T07:00:04.171Z,55.50
2019-02-22T07:02:32.677Z,55.40
2019-02-22T07:05:01.457Z,55.40
2019-02-22T07:07:29.948Z,55.50
2019-02-22T07:09:58.417Z,55.40
2019-02-22T07:12:34.594Z,55.50
2019-02-22T07:15:03.068Z,55.40
2019-02-22T07:17:31.680Z,55.50
2019-02-22T07:20:00.258Z,55.60
2019-02-22T07:22:28.832Z,55.40
2019-02-22T07:24:57.291Z,55.80
2019-02-22T07:27:25.811Z,55.80
2019-02-22T07:29:54.333Z,55.70
2019-02-22T07:32:22.780Z,55.70
2019-02-22T07:34:51.244Z,55.70
2019-02-22T07:37:19.670Z,55.60
2019-02-22T07:39:48.130Z,55.50
2019-02-22T07:42:16.648Z,55.30
2019-02-22T07:44:45.129Z,55.40
2019-02-22T07:47:13.635Z,55.50
2019-02-22T07:49:42.104Z,55.50
2019-02-22T07:52:10.636Z,55.40
2019-02-22T07:54:39.093Z,55.50
2019-02-22T07:57:07.547Z,55.40
2019-02-22T07:59:36.000Z,55.50
2019-02-22T08:02:04.728Z,55.40
2019-02-22T08:04:33.230Z,55.40
2019-02-22T08:07:01.680Z,55.40
2019-02-22T08:09:30.156Z,55.30
2019-02-22T08:11:58.627Z,55.30
2019-02-22T08:14:27.081Z,55.80
2019-02-22T08:16:55.607Z,55.20
2019-02-22T08:19:24.047Z,55.00
2019-02-22T08:21:52.539Z,54.90
2019-02-22T08:24:20.966Z,54.70
2019-02-22T08:26:49.423Z,54.50
2019-02-22T08:29:17.896Z,54.40
2019-02-22T08:31:46.372Z,54.00
2019-02-22T08:34:14.827Z,54.00
2019-02-22T08:36:43.320Z,54.30
2019-02-22T08:39:12.239Z,54.40
2019-02-22T08:41:40.756Z,54.40
2019-02-22T08:44:09.189Z,54.00
2019-02-22T08:46:37.738Z,53.70
2019-02-22T08:49:06.255Z,53.60
2019-02-22T08:51:34.769Z,53.30
2019-02-22T08:54:03.323Z,53.00
2019-02-22T08:56:31.775Z,52.90
2019-02-22T08:59:00.230Z,52.80
2019-02-22T09:01:28.919Z,52.90
2019-02-22T09:03:57.370Z,52.90
2019-02-22T09:06:25.899Z,53.00
2019-02-22T09:08:54.357Z,52.80
2019-02-22T09:11:22.807Z,52.50
2019-02-22T09:13:51.236Z,52.20
2019-02-22T09:16:19.757Z,52.20
2019-02-22T09:18:48.233Z,51.90
2019-02-22T09:21:16.659Z,51.80
2019-02-22T09:23:45.197Z,51.30
2019-02-22T09:26:13.630Z,51.30
2019-02-22T09:28:42.097Z,51.40
2019-02-22T09:31:10.559Z,51.30
2019-02-22T09:33:39.389Z,51.00
2019-02-22T09:36:09.713Z,51.00
2019-02-22T09:38:38.405Z,51.20
2019-02-22T09:41:07.346Z,51.10
2019-02-22T09:43:37.681Z,51.40
2019-02-22T09:46:09.961Z,51.30
2019-02-22T09:48:38.211Z,51.70
2019-02-22T09:51:06.648Z,51.70
2019-02-22T09:53:35.120Z,51.40
2019-02-22T09:56:03.630Z,51.20
2019-02-22T09:58:32.113Z,50.40
2019-02-22T10:01:00.562Z,49.00
2019-02-22T10:03:29.038Z,49.60
2019-02-22T10:05:57.556Z,49.90
2019-02-22T10:08:26.034Z,50.40
2019-02-22T10:10:54.487Z,50.10
2019-02-22T10:13:23.030Z,50.00
2019-02-22T10:15:51.523Z,49.10
2019-02-22T10:18:19.975Z,47.80
2019-02-22T10:20:48.541Z,47.90
2019-02-22T10:23:17.063Z,47.90
2019-02-22T10:25:45.530Z,47.40
2019-02-22T10:28:17.871Z,47.40
2019-02-22T10:30:44.176Z,46.20
2019-02-22T10:33:12.628Z,46.70
2019-02-22T10:35:41.071Z,46.80
2019-02-22T10:38:09.528Z,46.20
2019-02-22T10:40:39.307Z,45.20
2019-02-22T10:43:07.927Z,44.30
2019-02-22T10:45:37.043Z,44.00
2019-02-22T10:48:05.746Z,44.70
2019-02-22T10:50:34.220Z,44.80
2019-02-22T10:53:02.712Z,45.10
2019-02-22T10:55:31.236Z,45.30
2019-02-22T10:57:59.800Z,45.20
2019-02-22T11:00:28.256Z,43.80
2019-02-22T11:02:56.692Z,43.20
2019-02-22T11:05:25.143Z,43.60
2019-02-22T11:07:53.580Z,43.50
2019-02-22T11:10:22.030Z,43.60
2019-02-22T11:12:50.563Z,43.40
2019-02-22T11:15:19.095Z,43.80
2019-02-22T11:17:47.550Z,44.10
2019-02-22T11:20:16.022Z,44.20
2019-02-22T11:22:44.529Z,44.00
2019-02-22T11:25:14.435Z,43.50
2019-02-22T11:27:42.898Z,43.10
2019-02-22T11:30:15.064Z,43.80
2019-02-22T11:32:43.513Z,43.70
2019-02-22T11:35:12.251Z,43.80
2019-02-22T11:37:40.683Z,43.30
2019-02-22T11:40:11.456Z,43.80
2019-02-22T11:42:39.910Z,43.50
2019-02-22T11:45:10.107Z,43.80
2019-02-22T11:47:38.534Z,44.40
2019-02-22T11:50:13.496Z,44.20
2019-02-22T11:52:42.103Z,44.10
2019-02-22T11:55:11.395Z,44.00
2019-02-22T11:57:40.037Z,43.90
2019-02-22T12:00:20.803Z,44.30
2019-02-22T12:02:49.241Z,44.10
2019-02-22T12:05:17.764Z,44.20
2019-02-22T12:07:46.224Z,44.90
2019-02-22T12:10:14.747Z,44.60
2019-02-22T12:12:43.192Z,44.90
2019-02-22T12:15:13.171Z,45.00
2019-02-22T12:17:41.686Z,45.30
2019-02-22T12:20:11.259Z,45.60
2019-02-22T12:22:39.797Z,45.80
2019-02-22T12:25:12.715Z,46.40
2019-02-22T12:27:41.223Z,46.80
2019-02-22T12:30:12.546Z,47.10
2019-02-22T12:32:41.079Z,47.40
2019-02-22T12:35:09.580Z,47.30
2019-02-22T12:37:38.044Z,47.30
2019-02-22T12:40:09.425Z,47.30
2019-02-22T12:42:37.886Z,47.20
2019-02-22T12:45:11.564Z,47.10
2019-02-22T12:47:40.066Z,47.20
2019-02-22T12:50:10.749Z,47.20
2019-02-22T12:52:39.402Z,47.10
2019-02-22T12:55:11.505Z,46.90
2019-02-22T12:57:40.861Z,46.80
2019-02-22T13:00:15.074Z,46.80
2019-02-22T13:02:43.554Z,46.60
2019-02-22T13:05:18.011Z,46.70
2019-02-22T13:07:46.482Z,46.70
2019-02-22T13:10:15.073Z,46.60
2019-02-22T13:12:43.556Z,46.40
2019-02-22T13:15:14.428Z,46.30
2019-02-22T13:17:42.840Z,46.20
2019-02-22T13:20:11.576Z,46.10
2019-02-22T13:22:40.091Z,46.00
2019-02-22T13:25:10.178Z,45.80
2019-02-22T13:27:38.769Z,45.70
2019-02-22T13:30:10.296Z,45.70
2019-02-22T13:32:38.739Z,45.50
2019-02-22T13:35:07.325Z,45.30
2019-02-22T13:37:35.834Z,46.10
2019-02-22T13:40:06.641Z,45.50
2019-02-22T13:42:35.096Z,45.40
2019-02-22T13:45:04.110Z,44.80
2019-02-22T13:47:32.561Z,45.10
2019-02-22T13:50:06.312Z,45.10
2019-02-22T13:52:34.844Z,44.80
2019-02-22T13:55:03.275Z,44.50
2019-02-22T13:57:31.736Z,44.60
2019-02-22T14:00:00.307Z,44.20
2019-02-22T14:02:29.407Z,44.40
2019-02-22T14:04:57.822Z,44.30
2019-02-22T14:07:26.780Z,44.70
2019-02-22T14:09:55.242Z,44.70
2019-02-22T14:12:23.765Z,44.80
2019-02-22T14:14:52.237Z,44.70
2019-02-22T14:17:20.744Z,45.10
2019-02-22T14:19:49.174Z,45.20
2019-02-22T14:22:17.727Z,45.20
2019-02-22T14:24:46.183Z,45.50
2019-02-22T14:27:14.705Z,45.60
2019-02-22T14:29:43.676Z,45.60
2019-02-22T14:32:12.179Z,46.00
2019-02-22T14:34:40.843Z,46.40
2019-02-22T14:37:09.605Z,46.50
2019-02-22T14:39:38.918Z,46.50
2019-02-22T14:42:07.541Z,46.50
2019-02-22T14:44:36.275Z,46.40
2019-02-22T14:47:04.703Z,46.40
2019-02-22T14:49:33.158Z,46.50
2019-02-22T14:52:01.607Z,46.20
2019-02-22T14:54:30.080Z,46.20
2019-02-22T14:56:58.663Z,46.10
2019-02-22T14:59:27.128Z,46.10
2019-02-22T15:01:55.607Z,46.00
2019-02-22T15:04:24.076Z,46.00
2019-02-22T15:06:52.592Z,46.00
2019-02-22T15:09:21.116Z,45.90
2019-02-22T15:11:49.691Z,46.00
2019-02-22T15:14:18.335Z,45.80
2019-02-22T15:16:53.918Z,45.60
2019-02-22T15:19:22.477Z,45.70
2019-02-22T15:21:51.084Z,45.30
2019-02-22T15:24:19.584Z,45.40
2019-02-22T15:26:48.163Z,45.50
2019-02-22T15:29:16.642Z,45.30
2019-02-22T15:31:45.140Z,45.50
2019-02-22T15:34:13.737Z,45.60
2019-02-22T15:36:42.189Z,45.40
2019-02-22T15:39:10.676Z,45.20
2019-02-22T15:41:39.184Z,45.20
2019-02-22T15:44:07.762Z,45.40
2019-02-22T15:46:37.049Z,45.10
2019-02-22T15:49:05.942Z,45.20
2019-02-22T15:51:34.740Z,45.00
2019-02-22T15:54:03.192Z,45.00
2019-02-22T15:56:31.659Z,44.90
2019-02-22T15:59:00.523Z,45.00
2019-02-22T16:01:29.153Z,45.20
2019-02-22T16:03:59.495Z,45.40
2019-02-22T16:06:27.942Z,45.60
2019-02-22T16:08:56.387Z,45.60
2019-02-22T16:11:24.846Z,45.80
2019-02-22T16:13:53.314Z,45.90
2019-02-22T16:16:23.488Z,46.00
2019-02-22T16:18:52.135Z,46.00
2019-02-22T16:21:20.744Z,46.10
2019-02-22T16:23:49.263Z,46.20
2019-02-22T16:26:19.357Z,46.20
2019-02-22T16:28:48.124Z,46.30
2019-02-22T16:31:16.814Z,46.20
2019-02-22T16:33:45.494Z,46.30
2019-02-22T16:36:14.004Z,46.40
2019-02-22T16:38:42.437Z,46.50
2019-02-22T16:41:10.897Z,46.70
2019-02-22T16:43:39.406Z,47.00
2019-02-22T16:46:07.863Z,47.20
2019-02-22T16:48:36.334Z,47.30
2019-02-22T16:51:04.799Z,47.40
2019-02-22T16:53:33.230Z,47.40
2019-02-22T16:56:01.691Z,47.20
2019-02-22T16:58:30.205Z,47.30
2019-02-22T17:00:58.666Z,48.00
2019-02-22T17:03:27.129Z,47.50
2019-02-22T17:05:55.705Z,47.50
2019-02-22T17:08:24.203Z,47.40
2019-02-22T17:10:52.664Z,47.40
2019-02-22T17:13:21.098Z,47.40
2019-02-22T17:15:49.536Z,47.40
2019-02-22T17:18:18.019Z,47.40
2019-02-22T17:20:46.469Z,47.40
2019-02-22T17:23:14.937Z,47.50
2019-02-22T17:25:43.460Z,47.50
2019-02-22T17:28:11.909Z,47.50
2019-02-22T17:30:40.346Z,48.10
2019-02-22T17:33:08.879Z,47.50
2019-02-22T17:35:37.306Z,47.60
2019-02-22T17:38:05.768Z,47.70
2019-02-22T17:40:34.210Z,47.70
2019-02-22T17:43:02.684Z,47.80
2019-02-22T17:45:31.119Z,47.80
2019-02-22T17:48:00.429Z,47.90
2019-02-22T17:50:29.015Z,48.70
2019-02-22T17:52:57.480Z,48.10
2019-02-22T17:55:25.951Z,48.10
2019-02-22T17:57:54.889Z,48.30
2019-02-22T18:00:25.269Z,48.30
2019-02-22T18:02:53.799Z,48.30
2019-02-22T18:05:22.992Z,48.40
2019-02-22T18:07:51.459Z,48.40
2019-02-22T18:10:19.920Z,48.50
2019-02-22T18:12:48.390Z,48.50
2019-02-22T18:15:17.834Z,48.60
2019-02-22T18:17:47.333Z,48.60
2019-02-22T18:20:15.834Z,48.70
2019-02-22T18:22:44.297Z,48.90
2019-02-22T18:25:12.925Z,48.90
2019-02-22T18:27:41.422Z,49.10
2019-02-22T18:30:15.745Z,49.10
2019-02-22T18:32:44.230Z,49.10
2019-02-22T18:35:12.743Z,49.30
2019-02-22T18:37:41.206Z,49.40
2019-02-22T18:40:21.246Z,49.60
2019-02-22T18:42:49.846Z,49.60
2019-02-22T18:45:18.338Z,49.60
2019-02-22T18:47:46.895Z,49.70
2019-02-22T18:50:15.488Z,49.90
2019-02-22T18:52:43.931Z,50.00
2019-02-22T18:55:12.429Z,50.00
2019-02-22T18:57:41.056Z,49.90
2019-02-22T19:00:17.147Z,49.90
2019-02-22T19:02:45.761Z,50.10
2019-02-22T19:05:14.249Z,50.20
2019-02-22T19:07:42.765Z,50.30
2019-02-22T19:10:14.393Z,50.40
2019-02-22T19:12:42.831Z,50.40
2019-02-22T19:15:15.260Z,50.50
2019-02-22T19:17:43.732Z,50.60
2019-02-22T19:20:20.902Z,51.00
2019-02-22T19:22:49.359Z,50.80
2019-02-22T19:25:18.081Z,50.90
2019-02-22T19:27:46.775Z,50.90
2019-02-22T19:30:17.779Z,51.00
2019-02-22T19:32:46.278Z,51.10
2019-02-22T19:35:14.815Z,51.00
2019-02-22T19:37:43.402Z,51.00
2019-02-22T19:40:14.664Z,51.10
2019-02-22T19:42:43.102Z,51.10
2019-02-22T19:45:13.196Z,51.20
2019-02-22T19:47:42.454Z,51.30
2019-02-22T19:50:12.822Z,51.30
2019-02-22T19:52:41.400Z,51.30
2019-02-22T19:55:12.325Z,51.40
2019-02-22T19:57:40.751Z,51.60
2019-02-22T20:00:16.560Z,51.50
2019-02-22T20:02:45.227Z,51.50
2019-02-22T20:05:14.855Z,51.50
2019-02-22T20:07:43.426Z,51.50
2019-02-22T20:10:18.170Z,51.40
2019-02-22T20:12:47.067Z,51.70
2019-02-22T20:15:16.850Z,51.70
2019-02-22T20:17:53.164Z,51.80
2019-02-22T20:20:19.754Z,51.90
2019-02-22T20:22:48.172Z,52.00
2019-02-22T20:25:16.743Z,52.10
2019-02-22T20:27:45.211Z,52.10
2019-02-22T20:30:15.656Z,52.10
2019-02-22T20:32:44.117Z,52.20
2019-02-22T20:35:15.494Z,52.30
2019-02-22T20:37:52.636Z,52.30
2019-02-22T20:40:14.985Z,52.40
2019-02-22T20:42:43.892Z,52.50
2019-02-22T20:45:12.903Z,52.50
2019-02-22T20:47:41.404Z,52.70
2019-02-22T20:50:11.717Z,52.80
2019-02-22T20:52:40.275Z,52.80
2019-02-22T20:55:09.940Z,52.80
2019-02-22T20:57:38.433Z,52.80
2019-02-22T21:00:16.430Z,53.00
2019-02-22T21:02:44.930Z,52.90
2019-02-22T21:05:13.436Z,53.10
2019-02-22T21:07:41.912Z,52.90
2019-02-22T21:10:15.744Z,53.00
2019-02-22T21:12:44.354Z,53.00
2019-02-22T21:15:13.664Z,53.00
2019-02-22T21:17:42.603Z,53.00
2019-02-22T21:20:32.046Z,53.00
2019-02-22T21:23:00.511Z,53.00
2019-02-22T21:25:28.941Z,52.80
2019-02-22T21:27:57.556Z,53.10
2019-02-22T21:30:26.101Z,53.10
2019-02-22T21:32:54.564Z,53.10
2019-02-22T21:35:22.997Z,53.20
2019-02-22T21:37:51.454Z,53.30
2019-02-22T21:40:19.908Z,53.20
2019-02-22T21:42:48.376Z,53.30
2019-02-22T21:45:17.271Z,53.40
2019-02-22T21:47:54.366Z,53.30
2019-02-22T21:50:16.876Z,53.40
2019-02-22T21:52:45.467Z,53.30
2019-02-22T21:55:14.854Z,53.30
2019-02-22T21:57:43.400Z,53.30
2019-02-22T22:00:17.287Z,53.30
2019-02-22T22:02:45.737Z,53.20
2019-02-22T22:05:14.396Z,53.10
2019-02-22T22:07:42.897Z,53.30
2019-02-22T22:10:11.522Z,53.30
2019-02-22T22:12:40.051Z,53.30
2019-02-22T22:15:11.664Z,53.30
2019-02-22T22:17:40.247Z,53.50
2019-02-22T22:20:09.860Z,53.40
2019-02-22T22:22:38.474Z,54.00
2019-02-22T22:25:09.684Z,53.60
2019-02-22T22:27:38.155Z,53.40
2019-02-22T22:30:09.836Z,53.60
2019-02-22T22:32:38.284Z,53.60
2019-02-22T22:35:09.288Z,53.80
2019-02-22T22:37:37.806Z,53.80
2019-02-22T22:40:07.924Z,53.70
2019-02-22T22:42:36.349Z,53.60
2019-02-22T22:45:07.255Z,53.60
2019-02-22T22:47:35.692Z,54.10
2019-02-22T22:50:05.621Z,53.90
2019-02-22T22:52:34.130Z,54.00
2019-02-22T22:55:02.769Z,53.80
2019-02-22T22:57:31.285Z,53.90
2019-02-22T22:59:59.774Z,53.90
2019-02-22T23:02:28.355Z,53.70
2019-02-22T23:04:56.811Z,53.60
2019-02-22T23:07:25.305Z,53.70
2019-02-22T23:09:53.761Z,53.50
2019-02-22T23:12:22.277Z,53.40
2019-02-22T23:14:50.808Z,53.30
2019-02-22T23:17:19.343Z,53.70
2019-02-22T23:19:47.959Z,54.10
2019-02-22T23:22:16.437Z,53.40
2019-02-22T23:24:44.918Z,53.20
2019-02-22T23:27:13.391Z,53.20
2019-02-22T23:29:41.902Z,53.30
2019-02-22T23:32:10.366Z,53.20
2019-02-22T23:34:38.790Z,53.20
2019-02-22T23:37:07.258Z,53.10
2019-02-22T23:39:35.759Z,53.10
2019-02-22T23:42:04.271Z,53.10
2019-02-22T23:44:32.771Z,53.10
2019-02-22T23:47:01.321Z,53.20
2019-02-22T23:49:29.827Z,53.20
2019-02-22T23:51:58.326Z,53.20
2019-02-22T23:54:26.916Z,53.20
2019-02-22T23:56:55.370Z,53.40
2019-02-22T23:59:23.821Z,53.20
